الصفحة الرئيسية
METAR-TAF:

METAR-TAF

مطار :

ياكوتسك, روسيا

دائرة عرض: 62-01N, خط طول: 129-43E, ارتفاع: 103 متر

مراقبة الطقس الحالي

تاريخ ووقت الإصدار 43 دقيقة قبل الساعة 14:00UTC
ريح 6 عقدة من الشمال, الاتجاه يتراوح بين الشمال الغربي و الشمال الشرقي
درجة الحرارة 18°درجة مئوية
الرطوبة 88%
ضغط 1002 hPa
الرؤية 10 كم أو أكثر
غيوم متفرقة على ارتفاع 4000 قدم, مزنة ركامية.

METAR: UEEE 171400Z 35003MPS 310V040 9999 SCT040CB 18/16 Q1002 R23L/09//60 NOSIG RMK QFE743

زمن: 23:43 (14:43 UTC)

توقعات

تاريخ ووقت الإصدار 43 دقيقة قبل الساعة 14:00UTC
التوقعات صالحة من17 الساعة 15 UTC إلى 18 الساعة 21 UTC
ريح 6 عقدة من الغرب/الشمال الغربي تتزايد حتى 16 عقدة
الرؤية 10 كم أو أكثر
غيوم متفرقة على ارتفاع 2000 قدم, مزنة ركامية.
ملبد بالغيوم على ارتفاع 7000 قدم
مؤقت
من 07 الساعة 15 UTC إلى 08 الساعة 06 UTC
ريح 2 عقدةمن اتجاهات متغيرة
الرؤية: 0300 متر
على ارتفاع 300 قدم
عاصفة رعدية, مطر, ضباب

TAF: UEEE 171400Z 1715/1821 30003G08MPS 9999 SCT020CB OVC070 TEMPO 0715/0806 VRB01MPS 0300 TSRA FG VV003

أرصاد الطقس والتوقعات من أكثر من 4000 مطار (تقارير الطقس للمطار METAR والتنبؤ بالطقس بالمطارTAF).

المحطات المتاحة هي النقط الصفراء والحمراء على الخريطة.

حرك المؤشر فوق النقطة لمعرفة اسم المحطة.

ثم انقر لمعرفة أرصاد وتوقعات الطقس.

لتغيير الخارطة: اضغط على الأزرار الخضراء مع رمز الصليب الأسود للتكبير. على الزر الأخضر مع شرطة للتصغير، أو على الأسهم الخضراء للخرائط المجاورة.


METAR-TAF: